createdAt,value
2019-05-19T00:00:32.708Z,95.30
2019-05-19T00:03:02.582Z,95.30
2019-05-19T00:05:32.502Z,95.40
2019-05-19T00:08:02.300Z,95.40
2019-05-19T00:10:32.105Z,95.60
2019-05-19T00:13:02.044Z,95.70
2019-05-19T00:15:31.817Z,95.80
2019-05-19T00:18:01.665Z,95.90
2019-05-19T00:20:31.500Z,96.00
2019-05-19T00:23:01.348Z,96.20
2019-05-19T00:25:31.238Z,96.30
2019-05-19T00:28:01.137Z,96.30
2019-05-19T00:30:31.007Z,96.50
2019-05-19T00:33:00.828Z,96.50
2019-05-19T00:35:30.656Z,96.60
2019-05-19T00:38:00.485Z,96.60
2019-05-19T00:40:30.173Z,96.60
2019-05-19T00:42:59.889Z,96.70
2019-05-19T00:45:29.763Z,96.80
2019-05-19T00:48:00.042Z,96.80
2019-05-19T00:50:30.237Z,97.30
2019-05-19T00:52:59.961Z,97.00
2019-05-19T00:55:30.797Z,97.10
2019-05-19T00:58:02.403Z,97.20
2019-05-19T01:00:32.205Z,97.30
2019-05-19T01:03:02.049Z,97.30
2019-05-19T01:05:31.891Z,97.30
2019-05-19T01:08:01.702Z,97.40
2019-05-19T01:10:31.475Z,97.40
2019-05-19T01:13:01.139Z,97.60
2019-05-19T01:15:30.857Z,97.60
2019-05-19T01:18:00.647Z,97.70
2019-05-19T01:20:30.439Z,97.70
2019-05-19T01:23:00.237Z,97.80
2019-05-19T01:25:30.013Z,97.90
2019-05-19T01:27:59.797Z,97.90
2019-05-19T01:30:29.508Z,98.00
2019-05-19T01:32:59.459Z,98.20
2019-05-19T01:35:29.234Z,98.10
2019-05-19T01:37:59.021Z,98.10
2019-05-19T01:40:28.798Z,98.20
2019-05-19T01:42:58.679Z,98.30
2019-05-19T01:45:28.541Z,98.30
2019-05-19T01:47:58.276Z,98.40
2019-05-19T01:50:28.061Z,98.40
2019-05-19T01:52:57.819Z,98.50
2019-05-19T01:55:27.517Z,98.50
2019-05-19T01:57:57.234Z,98.50
2019-05-19T02:00:27.122Z,98.60
2019-05-19T02:02:56.975Z,98.70
2019-05-19T02:05:26.799Z,98.60
2019-05-19T02:07:56.705Z,98.70
2019-05-19T02:10:26.487Z,98.70
2019-05-19T02:12:56.197Z,98.70
2019-05-19T02:15:25.985Z,98.70
2019-05-19T02:17:55.843Z,98.70
2019-05-19T02:20:33.199Z,98.80
2019-05-19T02:22:57.105Z,98.80
2019-05-19T02:25:26.914Z,98.90
2019-05-19T02:27:56.645Z,98.90
2019-05-19T02:30:26.525Z,98.80
2019-05-19T02:32:56.207Z,98.80
2019-05-19T02:35:26.039Z,98.90
2019-05-19T02:37:55.756Z,99.00
2019-05-19T02:40:25.534Z,99.10
2019-05-19T02:42:57.038Z,99.00
2019-05-19T02:45:29.458Z,99.10
2019-05-19T02:48:02.161Z,99.50
2019-05-19T02:50:50.832Z,99.30
2019-05-19T02:53:09.538Z,99.40
2019-05-19T02:55:41.288Z,99.50
2019-05-19T02:58:13.493Z,99.50
2019-05-19T03:00:44.087Z,99.50
2019-05-19T03:03:14.235Z,99.50
2019-05-19T03:05:44.032Z,99.50
2019-05-19T03:08:13.725Z,99.50
2019-05-19T03:10:43.569Z,99.50
2019-05-19T03:13:13.290Z,99.50
2019-05-19T03:15:43.007Z,99.60
2019-05-19T03:18:12.931Z,99.60
2019-05-19T03:20:42.705Z,99.60
2019-05-19T03:23:12.573Z,99.60
2019-05-19T03:25:44.180Z,99.60
2019-05-19T03:28:13.655Z,99.60
2019-05-19T03:30:55.092Z,99.60
2019-05-19T03:33:27.921Z,99.50
2019-05-19T03:35:57.736Z,99.60
2019-05-19T03:38:27.538Z,99.50
2019-05-19T03:40:57.324Z,99.50
2019-05-19T03:43:27.419Z,99.50
2019-05-19T03:45:57.151Z,99.60
2019-05-19T03:48:27.009Z,99.60
2019-05-19T03:50:56.897Z,99.70
2019-05-19T03:53:26.706Z,99.80
2019-05-19T03:55:56.467Z,99.70
2019-05-19T03:58:26.316Z,99.70
2019-05-19T04:00:56.120Z,99.80
2019-05-19T04:03:25.851Z,99.70
2019-05-19T04:05:55.678Z,99.70
2019-05-19T04:08:25.463Z,99.70
2019-05-19T04:10:55.559Z,99.70
2019-05-19T04:13:25.466Z,99.80
2019-05-19T04:15:55.322Z,99.80
2019-05-19T04:18:25.022Z,99.70
2019-05-19T04:20:54.856Z,99.70
2019-05-19T04:23:24.692Z,99.70
2019-05-19T04:25:54.499Z,99.60
2019-05-19T04:28:24.367Z,99.60
2019-05-19T04:30:54.183Z,99.60
2019-05-19T04:33:23.969Z,99.70
2019-05-19T04:35:57.299Z,99.60
2019-05-19T04:38:25.129Z,99.70
2019-05-19T04:40:55.021Z,99.60
2019-05-19T04:43:24.750Z,99.60
2019-05-19T04:45:54.438Z,99.70
2019-05-19T04:48:24.311Z,99.70
2019-05-19T04:54:35.336Z,99.60
2019-05-19T04:57:05.082Z,99.50
2019-05-19T04:59:34.755Z,99.40
2019-05-19T05:02:04.615Z,99.50
2019-05-19T05:04:34.449Z,99.50
2019-05-19T05:07:04.230Z,99.40
2019-05-19T05:09:34.071Z,99.50
2019-05-19T05:12:03.736Z,99.40
2019-05-19T05:14:34.393Z,99.30
2019-05-19T05:17:04.147Z,99.30
2019-05-19T05:19:33.907Z,99.30
2019-05-19T05:22:03.693Z,99.30
2019-05-19T05:24:33.406Z,99.20
2019-05-19T05:27:03.169Z,99.20
2019-05-19T05:29:33.018Z,99.20
2019-05-19T05:32:02.943Z,99.20
2019-05-19T05:34:32.725Z,99.10
2019-05-19T05:37:02.623Z,99.10
2019-05-19T05:39:32.333Z,99.10
2019-05-19T05:42:10.708Z,99.00
2019-05-19T05:44:40.506Z,98.90
2019-05-19T05:47:10.381Z,98.80
2019-05-19T05:49:40.075Z,98.90
2019-05-19T05:52:10.008Z,98.80
2019-05-19T05:54:39.754Z,98.80
2019-05-19T05:57:09.505Z,98.80
2019-05-19T05:59:39.267Z,98.90
2019-05-19T06:02:09.062Z,98.90
2019-05-19T06:04:38.891Z,98.80
2019-05-19T06:07:08.637Z,98.70
2019-05-19T06:09:38.419Z,98.70
2019-05-19T06:12:08.071Z,98.60
2019-05-19T06:14:37.844Z,98.50
2019-05-19T06:17:07.555Z,98.40
2019-05-19T06:19:37.301Z,98.30
2019-05-19T06:22:07.158Z,98.20
2019-05-19T06:24:36.843Z,98.40
2019-05-19T06:27:06.590Z,98.00
2019-05-19T06:29:36.314Z,97.90
2019-05-19T06:32:16.487Z,97.90
2019-05-19T06:34:46.249Z,97.80
2019-05-19T06:37:15.981Z,97.70
2019-05-19T06:44:07.469Z,97.50
2019-05-19T06:46:37.257Z,97.30
2019-05-19T06:49:07.036Z,97.10
2019-05-19T06:51:36.831Z,97.00
2019-05-19T06:54:06.653Z,96.80
2019-05-19T06:56:36.441Z,96.70
2019-05-19T06:59:06.306Z,96.60
2019-05-19T07:01:35.986Z,96.60
2019-05-19T07:04:05.779Z,96.50
2019-05-19T07:06:35.667Z,96.30
2019-05-19T07:09:06.935Z,96.30
2019-05-19T07:11:36.692Z,96.20
2019-05-19T07:14:06.857Z,96.00
2019-05-19T07:16:36.775Z,95.90
2019-05-19T07:22:24.139Z,95.80
2019-05-19T07:24:53.901Z,95.70
2019-05-19T07:27:23.596Z,95.60
2019-05-19T07:29:53.514Z,95.50
2019-05-19T07:32:23.292Z,95.30
2019-05-19T07:34:53.128Z,95.20
2019-05-19T07:37:22.937Z,95.00
2019-05-19T07:39:52.788Z,94.80
2019-05-19T07:42:22.580Z,94.80
2019-05-19T07:44:52.449Z,94.60
2019-05-19T07:47:22.250Z,94.30
2019-05-19T07:53:24.414Z,93.70
2019-05-19T07:55:54.220Z,93.50
2019-05-19T07:58:24.183Z,93.50
2019-05-19T08:00:53.858Z,93.40
2019-05-19T08:03:23.720Z,93.50
2019-05-19T08:05:53.414Z,93.60
2019-05-19T08:08:23.134Z,93.40
2019-05-19T08:10:52.910Z,93.20
2019-05-19T08:13:22.774Z,93.00
2019-05-19T08:15:52.616Z,92.80
2019-05-19T08:18:22.380Z,92.70
2019-05-19T08:20:52.161Z,92.30
2019-05-19T08:23:21.873Z,91.80
2019-05-19T08:25:54.296Z,91.50
2019-05-19T08:28:24.178Z,91.40
2019-05-19T08:30:53.989Z,91.30
2019-05-19T08:33:23.836Z,91.00
2019-05-19T08:35:53.599Z,91.00
2019-05-19T08:38:23.342Z,90.90
2019-05-19T08:40:53.263Z,91.00
2019-05-19T08:43:23.077Z,90.90
2019-05-19T08:45:52.857Z,90.50
2019-05-19T08:48:22.731Z,90.20
2019-05-19T08:50:52.479Z,89.90
2019-05-19T08:53:22.406Z,89.50
2019-05-19T08:55:52.071Z,88.90
2019-05-19T08:58:21.840Z,88.40
2019-05-19T09:00:51.529Z,87.50
2019-05-19T09:03:21.352Z,87.10
2019-05-19T09:05:51.169Z,86.00
2019-05-19T09:08:20.913Z,85.40
2019-05-19T09:10:50.886Z,85.70
2019-05-19T09:13:20.641Z,86.00
2019-05-19T09:15:50.362Z,85.90
2019-05-19T09:18:20.111Z,85.70
2019-05-19T09:20:49.842Z,85.40
2019-05-19T09:23:19.529Z,85.40
2019-05-19T09:25:49.285Z,85.00
2019-05-19T09:28:19.115Z,83.30
2019-05-19T09:30:48.929Z,82.40
2019-05-19T09:33:19.544Z,81.10
2019-05-19T09:35:49.302Z,80.00
2019-05-19T09:38:18.973Z,78.80
2019-05-19T09:40:48.756Z,77.40
2019-05-19T09:43:18.449Z,76.90
2019-05-19T09:45:48.184Z,76.90
2019-05-19T09:48:17.988Z,77.30
2019-05-19T09:50:47.839Z,77.70
2019-05-19T09:53:17.613Z,77.90
2019-05-19T09:55:47.336Z,77.70
2019-05-19T09:58:20.045Z,78.40
2019-05-19T10:00:48.555Z,79.20
2019-05-19T10:03:19.766Z,78.00
2019-05-19T10:05:49.881Z,77.30
2019-05-19T10:08:25.219Z,77.60
2019-05-19T10:11:29.082Z,76.70
2019-05-19T10:13:58.837Z,76.10
2019-05-19T10:16:28.626Z,75.00
2019-05-19T10:18:58.386Z,73.30
2019-05-19T10:21:28.204Z,73.10
2019-05-19T10:23:58.031Z,71.80
2019-05-19T10:26:27.745Z,71.60
2019-05-19T10:28:57.473Z,71.30
2019-05-19T10:31:27.258Z,70.30
2019-05-19T10:33:57.148Z,70.00
2019-05-19T10:36:27.085Z,70.00
2019-05-19T10:38:56.913Z,68.80
2019-05-19T10:41:26.721Z,68.30
2019-05-19T10:44:00.862Z,68.00
2019-05-19T10:46:31.017Z,66.70
2019-05-19T10:49:00.820Z,65.30
2019-05-19T10:51:30.573Z,64.80
2019-05-19T10:54:00.416Z,64.10
2019-05-19T10:56:30.245Z,63.40
2019-05-19T10:59:00.128Z,63.40
2019-05-19T11:01:29.864Z,62.50
2019-05-19T11:03:59.676Z,62.00
2019-05-19T11:06:29.416Z,62.20
2019-05-19T11:08:59.281Z,61.80
2019-05-19T11:11:29.077Z,61.20
2019-05-19T11:13:58.907Z,59.90
2019-05-19T11:16:28.659Z,59.70
2019-05-19T11:18:58.395Z,60.00
2019-05-19T11:21:28.152Z,60.20
2019-05-19T11:23:58.609Z,59.70
2019-05-19T11:26:28.392Z,59.50
2019-05-19T11:28:58.160Z,60.00
2019-05-19T11:31:27.859Z,60.00
2019-05-19T11:33:57.654Z,59.80
2019-05-19T11:36:27.370Z,60.00
2019-05-19T11:38:57.203Z,60.20
2019-05-19T11:41:27.053Z,59.50
2019-05-19T11:43:56.825Z,59.30
2019-05-19T11:46:26.635Z,58.60
2019-05-19T11:48:56.391Z,58.50
2019-05-19T11:51:26.227Z,57.90
2019-05-19T11:53:56.020Z,58.30
2019-05-19T11:56:25.719Z,58.00
2019-05-19T11:58:55.529Z,57.80
2019-05-19T12:01:25.308Z,56.90
2019-05-19T12:03:55.597Z,56.20
2019-05-19T12:06:38.243Z,56.40
2019-05-19T12:08:56.956Z,55.60
2019-05-19T12:11:26.762Z,55.30
2019-05-19T12:13:56.614Z,55.10
2019-05-19T12:16:26.380Z,55.00
2019-05-19T12:18:57.578Z,55.90
2019-05-19T12:21:27.594Z,55.60
2019-05-19T12:23:57.356Z,55.00
2019-05-19T12:26:27.016Z,53.60
2019-05-19T12:28:56.775Z,54.20
2019-05-19T12:31:26.527Z,55.00
2019-05-19T12:33:56.336Z,56.30
2019-05-19T12:36:26.113Z,57.00
2019-05-19T12:38:55.883Z,56.60
2019-05-19T12:41:25.594Z,56.10
2019-05-19T12:43:55.340Z,55.20
2019-05-19T12:46:25.074Z,54.50
2019-05-19T12:48:54.792Z,54.20
2019-05-19T12:51:26.937Z,53.20
2019-05-19T12:53:56.713Z,52.10
2019-05-19T12:56:38.772Z,50.40
2019-05-19T12:58:58.357Z,49.60
2019-05-19T13:01:28.411Z,50.00
2019-05-19T13:03:58.210Z,49.80
2019-05-19T13:06:27.979Z,48.80
2019-05-19T13:08:57.722Z,48.70
2019-05-19T13:11:27.506Z,48.50
2019-05-19T13:13:57.180Z,47.90
2019-05-19T13:16:26.968Z,47.70
2019-05-19T13:18:56.774Z,47.40
2019-05-19T13:21:26.430Z,47.00
2019-05-19T13:23:56.165Z,47.60
2019-05-19T13:26:25.927Z,47.40
2019-05-19T13:28:55.710Z,47.40
2019-05-19T13:31:25.513Z,47.60
2019-05-19T13:33:55.179Z,47.00
2019-05-19T13:36:24.993Z,46.40
2019-05-19T13:38:54.636Z,45.70
2019-05-19T13:41:24.534Z,45.50
2019-05-19T13:43:54.358Z,44.70
2019-05-19T13:46:24.056Z,44.50
2019-05-19T13:48:53.886Z,44.40
2019-05-19T13:51:23.831Z,44.50
2019-05-19T13:53:53.634Z,44.90
2019-05-19T13:56:23.643Z,45.30
2019-05-19T13:58:53.478Z,45.50
2019-05-19T14:01:28.627Z,46.10
2019-05-19T14:03:54.845Z,46.10
2019-05-19T14:06:24.711Z,46.10
2019-05-19T14:08:54.744Z,46.20
2019-05-19T14:11:24.656Z,47.80
2019-05-19T14:13:54.364Z,50.20
2019-05-19T14:16:26.512Z,52.90
2019-05-19T14:19:00.963Z,53.90
2019-05-19T14:21:30.789Z,54.60
2019-05-19T14:24:00.605Z,55.40
2019-05-19T14:26:33.883Z,56.60
2019-05-19T14:29:03.800Z,58.00
2019-05-19T14:31:36.548Z,59.30
2019-05-19T14:34:09.667Z,59.90
2019-05-19T14:36:42.745Z,60.00
2019-05-19T14:39:12.521Z,60.40
2019-05-19T14:41:48.050Z,60.70
2019-05-19T14:44:17.799Z,60.70
2019-05-19T14:46:47.615Z,61.30
2019-05-19T14:49:17.331Z,60.90
2019-05-19T14:51:47.255Z,60.40
2019-05-19T14:54:17.037Z,60.90
2019-05-19T14:56:58.925Z,61.40
2019-05-19T14:59:28.835Z,61.10
2019-05-19T15:05:39.758Z,59.90
2019-05-19T15:08:09.609Z,59.80
2019-05-19T15:10:39.416Z,59.40
2019-05-19T15:13:09.250Z,58.90
2019-05-19T15:15:42.861Z,57.70
2019-05-19T15:18:13.424Z,57.20
2019-05-19T15:20:43.388Z,56.70
2019-05-19T15:23:13.243Z,56.30
2019-05-19T15:25:42.996Z,56.00
2019-05-19T15:28:12.798Z,55.90
2019-05-19T15:30:42.615Z,55.90
2019-05-19T15:33:12.551Z,55.90
2019-05-19T15:43:32.367Z,59.10
2019-05-19T15:46:02.176Z,60.70
2019-05-19T15:48:31.964Z,60.90
2019-05-19T15:51:01.669Z,61.10
2019-05-19T15:53:31.543Z,61.50
2019-05-19T15:56:01.284Z,62.00
2019-05-19T15:58:31.075Z,62.40
2019-05-19T16:01:00.859Z,63.60
2019-05-19T16:03:30.642Z,63.80
2019-05-19T16:06:00.375Z,63.30
2019-05-19T16:08:30.109Z,63.10
2019-05-19T16:10:59.891Z,63.00
2019-05-19T16:13:29.634Z,63.60
2019-05-19T16:16:01.155Z,65.10
2019-05-19T16:18:30.824Z,65.50
2019-05-19T16:21:00.537Z,66.80
2019-05-19T16:23:30.535Z,67.50
2019-05-19T16:26:04.171Z,67.30
2019-05-19T16:28:33.965Z,67.70
2019-05-19T16:31:03.932Z,67.90
2019-05-19T16:33:33.866Z,68.60
2019-05-19T16:36:03.644Z,69.10
2019-05-19T16:38:33.543Z,69.80
2019-05-19T16:41:03.324Z,70.70
2019-05-19T16:43:33.053Z,71.50
2019-05-19T16:46:02.718Z,73.20
2019-05-19T16:48:32.479Z,73.50
2019-05-19T16:51:02.205Z,75.10
2019-05-19T16:53:31.984Z,75.20
2019-05-19T16:56:01.771Z,72.90
2019-05-19T16:58:44.368Z,71.20
2019-05-19T17:01:04.653Z,69.80
2019-05-19T17:03:34.473Z,68.80
2019-05-19T17:06:04.236Z,68.00
2019-05-19T17:08:34.042Z,69.80
2019-05-19T17:11:17.547Z,72.70
2019-05-19T17:13:35.311Z,75.40
2019-05-19T17:16:05.200Z,76.20
2019-05-19T17:18:35.162Z,77.80
2019-05-19T17:21:04.905Z,79.30
2019-05-19T17:23:34.867Z,80.00
2019-05-19T17:26:04.998Z,80.80
2019-05-19T17:28:34.795Z,82.30
2019-05-19T17:31:07.471Z,83.30
2019-05-19T17:33:35.992Z,84.10
2019-05-19T17:36:05.910Z,85.30
2019-05-19T17:38:35.718Z,85.60
2019-05-19T17:41:05.894Z,85.20
2019-05-19T17:43:35.714Z,85.20
2019-05-19T17:46:08.718Z,85.80
2019-05-19T17:48:38.373Z,87.00
2019-05-19T17:51:08.168Z,88.60
2019-05-19T17:53:38.016Z,90.10
2019-05-19T17:56:07.767Z,90.70
2019-05-19T17:58:38.317Z,90.80
2019-05-19T18:01:08.069Z,91.00
2019-05-19T18:03:39.475Z,91.40
2019-05-19T18:13:14.433Z,92.40
2019-05-19T18:15:44.127Z,92.80
2019-05-19T18:18:13.878Z,92.70
2019-05-19T18:20:46.559Z,93.00
2019-05-19T18:23:15.037Z,93.30
2019-05-19T18:25:44.825Z,93.40
2019-05-19T18:28:14.614Z,93.70
2019-05-19T18:30:44.454Z,93.80
2019-05-19T18:33:14.419Z,93.90
2019-05-19T18:35:44.302Z,93.90
2019-05-19T18:41:46.655Z,94.10
2019-05-19T18:44:16.391Z,94.00
2019-05-19T18:46:46.558Z,94.30
2019-05-19T18:49:16.757Z,94.40
2019-05-19T18:51:46.625Z,94.50
2019-05-19T18:54:16.489Z,94.70
2019-05-19T18:56:46.456Z,95.00
2019-05-19T18:59:16.214Z,95.30
2019-05-19T19:01:46.304Z,95.40
2019-05-19T19:04:16.128Z,95.60
2019-05-19T19:06:46.021Z,95.70
2019-05-19T19:09:16.028Z,95.90
2019-05-19T19:11:45.906Z,96.10
2019-05-19T19:14:15.728Z,96.30
2019-05-19T19:16:45.513Z,96.50
2019-05-19T19:19:15.283Z,96.60
2019-05-19T19:30:03.477Z,96.90
2019-05-19T19:32:27.733Z,96.90
2019-05-19T19:34:57.580Z,96.90
2019-05-19T19:37:27.414Z,96.90
2019-05-19T19:39:57.151Z,97.00
2019-05-19T19:42:27.287Z,97.10
2019-05-19T19:44:57.536Z,97.20
2019-05-19T19:47:27.321Z,97.30
2019-05-19T19:49:57.066Z,97.30
2019-05-19T19:52:26.835Z,97.30
2019-05-19T19:54:56.605Z,97.50
2019-05-19T19:57:26.471Z,97.50
2019-05-19T19:59:56.374Z,97.60
2019-05-19T20:02:26.299Z,97.80
2019-05-19T20:04:56.040Z,98.00
2019-05-19T20:07:25.833Z,98.30
2019-05-19T20:09:55.779Z,98.50
2019-05-19T20:12:25.655Z,98.80
2019-05-19T20:14:55.499Z,98.90
2019-05-19T20:17:25.397Z,99.10
2019-05-19T20:19:55.163Z,99.20
2019-05-19T20:22:24.957Z,99.40
2019-05-19T20:24:54.744Z,99.40
2019-05-19T20:27:24.644Z,99.40
2019-05-19T20:29:54.509Z,99.30
2019-05-19T20:32:24.296Z,99.30
2019-05-19T20:34:54.207Z,99.40
2019-05-19T20:37:27.184Z,99.30
2019-05-19T20:39:56.943Z,99.40
2019-05-19T20:43:32.301Z,99.50
2019-05-19T20:45:46.753Z,99.60
2019-05-19T20:48:16.522Z,99.70
2019-05-19T20:50:50.311Z,99.80
2019-05-19T20:53:20.003Z,99.90
2019-05-19T20:55:49.844Z,99.90
2019-05-19T20:58:20.595Z,99.90
2019-05-19T21:00:51.931Z,99.90
2019-05-19T21:03:22.119Z,99.90
2019-05-19T21:05:51.897Z,99.90
2019-05-19T21:15:26.820Z,99.90
2019-05-19T21:17:56.729Z,99.90
2019-05-19T21:20:26.465Z,99.90
2019-05-19T21:22:56.299Z,99.90
2019-05-19T21:25:26.043Z,99.90
2019-05-19T21:27:55.798Z,99.90
2019-05-19T21:30:25.586Z,99.90
2019-05-19T21:32:55.374Z,99.90
2019-05-19T21:35:25.262Z,99.90
2019-05-19T21:41:57.185Z,99.90
2019-05-19T21:44:26.943Z,99.90
2019-05-19T21:46:56.692Z,99.90
2019-05-19T21:49:26.379Z,99.90
2019-05-19T21:51:56.127Z,99.90
2019-05-19T21:54:25.797Z,99.90
2019-05-19T21:56:55.534Z,99.90
2019-05-19T21:59:25.391Z,99.90
2019-05-19T22:01:55.141Z,99.90
2019-05-19T22:04:24.907Z,99.90
2019-05-19T22:07:02.376Z,99.90
2019-05-19T22:09:32.072Z,99.90
2019-05-19T22:12:01.948Z,99.90
2019-05-19T22:14:31.801Z,99.90
2019-05-19T22:17:01.580Z,99.90
2019-05-19T22:19:31.274Z,99.90
2019-05-19T22:22:00.923Z,99.90
2019-05-19T22:24:30.686Z,99.90
2019-05-19T22:27:00.425Z,99.90
2019-05-19T22:29:30.118Z,99.90
2019-05-19T22:32:00.323Z,99.90
2019-05-19T22:34:30.132Z,99.90
2019-05-19T22:36:59.812Z,99.90
2019-05-19T22:39:29.580Z,99.90
2019-05-19T22:41:59.326Z,99.90
2019-05-19T22:44:28.997Z,99.90
2019-05-19T22:46:58.759Z,99.90
2019-05-19T22:49:28.538Z,99.90
2019-05-19T22:51:58.339Z,99.90
2019-05-19T22:54:28.014Z,99.90
2019-05-19T22:56:57.780Z,99.90
2019-05-19T22:59:27.514Z,99.90
2019-05-19T23:01:57.178Z,99.90
2019-05-19T23:04:26.951Z,99.90
2019-05-19T23:06:56.873Z,99.90
2019-05-19T23:09:26.710Z,99.90
2019-05-19T23:11:56.586Z,99.90
2019-05-19T23:14:26.464Z,99.90
2019-05-19T23:16:56.341Z,99.90
2019-05-19T23:19:26.132Z,99.90
2019-05-19T23:21:55.970Z,99.90
2019-05-19T23:24:25.684Z,99.90
2019-05-19T23:26:55.453Z,99.90
2019-05-19T23:29:25.364Z,99.90
2019-05-19T23:32:06.749Z,99.90
2019-05-19T23:34:26.574Z,99.90
2019-05-19T23:36:56.494Z,99.90
2019-05-19T23:39:26.371Z,99.90
2019-05-19T23:41:56.158Z,99.90
2019-05-19T23:44:26.074Z,99.90
2019-05-19T23:46:55.904Z,99.90
2019-05-19T23:49:25.635Z,99.90
2019-05-19T23:51:55.448Z,99.90
2019-05-19T23:54:25.261Z,99.90
2019-05-19T23:56:54.927Z,99.90
2019-05-19T23:59:24.840Z,99.90
